Time;durP1;ratioP1;P1;durP2;ratioP2;P2;SDS_P1;SDS_P2;PMS_P1;PMS_P2;Temp;Humidity;BMP_temperature;BMP_pressure;BME280_temperature;BME280_humidity;BME280_pressure;Samples;Min_cycle;Max_cycle;Signal;HPM_P1;HPM_P2
2024/04/04 00:02:43;;;;;;;9.80;2.08;;;;;;;11.04;100.00;100325.34;6177594;28;20455;-78
2024/04/04 00:05:49;;;;;;;3.60;1.70;;;;;;;11.01;100.00;100329.94;6177464;28;20046;-78
2024/04/04 00:08:52;;;;;;;4.05;1.60;;;;;;;11.02;100.00;100324.56;6177942;28;20439;-80
2024/04/04 00:11:53;;;;;;;4.53;1.95;;;;;;;11.02;100.00;100331.63;6177335;28;20043;-79
2024/04/04 00:14:53;;;;;;;5.78;2.17;;;;;;;11.05;100.00;100321.75;6177790;28;20050;-80
2024/04/04 00:17:55;;;;;;;4.30;1.75;;;;;;;11.04;100.00;100333.22;6177357;28;20051;-77
2024/04/04 00:20:55;;;;;;;2.00;1.25;;;;;;;11.06;100.00;100328.72;6169477;28;20435;-79
2024/04/04 00:23:59;;;;;;;4.72;1.40;;;;;;;11.10;100.00;100334.63;6165008;28;20052;-79
2024/04/04 00:26:59;;;;;;;2.20;1.50;;;;;;;11.03;100.00;100336.78;6174068;28;20059;-79
2024/04/04 00:30:00;;;;;;;6.07;1.33;;;;;;;10.93;100.00;100341.75;6177411;28;20094;-79
2024/04/04 00:33:01;;;;;;;3.97;1.30;;;;;;;11.00;100.00;100339.63;6169056;28;20054;-79
2024/04/04 00:36:02;;;;;;;1.40;1.02;;;;;;;10.99;100.00;100343.19;6177357;28;20452;-77
2024/04/04 00:39:04;;;;;;;3.78;1.20;;;;;;;11.08;100.00;100341.75;6177280;28;20046;-77
2024/04/04 00:42:05;;;;;;;2.78;1.27;;;;;;;11.14;100.00;100334.34;6176930;28;20075;-78
2024/04/04 00:45:06;;;;;;;7.43;0.80;;;;;;;11.07;100.00;100343.53;6176929;28;20043;-76
2024/04/04 00:48:07;;;;;;;1.73;0.80;;;;;;;11.06;100.00;100335.75;6177151;28;20467;-78
2024/04/04 00:51:08;;;;;;;2.80;1.00;;;;;;;11.00;100.00;100334.34;6176817;28;20058;-77
2024/04/04 00:54:11;;;;;;;1.30;0.60;;;;;;;10.98;100.00;100330.97;6177204;28;20042;-78
2024/04/04 00:57:11;;;;;;;0.68;0.52;;;;;;;10.97;100.00;100329.28;6180017;28;20050;-77
2024/04/04 01:00:14;;;;;;;9.45;1.13;;;;;;;11.05;100.00;100332.28;6175424;28;20062;-78
2024/04/04 01:03:14;;;;;;;5.07;0.68;;;;;;;11.06;100.00;100326.06;6165764;28;20178;-78
2024/04/04 01:06:29;;;;;;;4.55;0.80;;;;;;;11.04;100.00;100335.03;6164259;28;20043;-78
2024/04/04 01:09:32;;;;;;;0.70;0.70;;;;;;;11.03;100.00;100338.56;6170209;28;20051;-79
2024/04/04 01:12:33;;;;;;;3.08;0.82;;;;;;;11.06;100.00;100333.13;6166305;28;20095;-78
2024/04/04 01:15:34;;;;;;;9.65;1.17;;;;;;;10.99;100.00;100340.56;6181445;28;20355;-79
2024/04/04 01:18:35;;;;;;;1.50;0.65;;;;;;;11.01;100.00;100346.56;6181282;28;20053;-80
2024/04/04 01:21:35;;;;;;;5.13;0.85;;;;;;;10.99;100.00;100344.94;6179954;28;20380;-79
2024/04/04 01:24:38;;;;;;;4.43;0.98;;;;;;;11.05;100.00;100347.22;6157446;28;20047;-77
2024/04/04 01:27:39;;;;;;;5.35;0.80;;;;;;;11.00;100.00;100334.34;6175095;28;20443;-77
2024/04/04 01:30:40;;;;;;;2.28;0.65;;;;;;;11.01;100.00;100333.41;6162913;28;20059;-77
2024/04/04 01:33:41;;;;;;;5.70;0.80;;;;;;;10.95;100.00;100335.59;6175038;28;20340;-77
2024/04/04 01:36:42;;;;;;;3.28;0.60;;;;;;;10.98;100.00;100344.09;6178948;28;20054;-77
2024/04/04 01:39:44;;;;;;;2.92;0.80;;;;;;;10.91;100.00;100341.03;6175119;28;20058;-77
2024/04/04 01:42:46;;;;;;;1.63;0.80;;;;;;;10.91;100.00;100345.44;6178089;28;20057;-77
2024/04/04 01:45:46;;;;;;;1.05;0.70;;;;;;;10.83;100.00;100345.91;6175273;28;20062;-78
2024/04/04 01:48:48;;;;;;;12.15;1.05;;;;;;;10.91;100.00;100348.06;6180769;28;20439;-77
2024/04/04 01:51:48;;;;;;;4.68;1.10;;;;;;;10.88;100.00;100353.50;6180343;28;20047;-77
2024/04/04 01:54:51;;;;;;;3.63;1.00;;;;;;;10.82;100.00;100349.47;6180797;28;20086;-79
2024/04/04 01:57:52;;;;;;;6.95;0.88;;;;;;;10.90;100.00;100355.13;6180329;28;20360;-77
2024/04/04 02:00:53;;;;;;;1.00;0.60;;;;;;;10.78;100.00;100349.75;6180770;28;20058;-79
2024/04/04 02:03:54;;;;;;;4.97;0.85;;;;;;;10.82;100.00;100351.25;6180260;28;20070;-79
2024/04/04 02:06:55;;;;;;;4.22;1.05;;;;;;;10.83;100.00;100353.78;6176593;28;20055;-79
2024/04/04 02:09:57;;;;;;;5.30;1.05;;;;;;;10.88;100.00;100350.88;6167918;28;20054;-78
2024/04/04 02:12:58;;;;;;;6.07;1.50;;;;;;;10.84;100.00;100346.75;6160133;28;20047;-78
2024/04/04 02:16:00;;;;;;;4.80;0.85;;;;;;;10.81;100.00;100353.03;6164364;28;20048;-79
2024/04/04 02:19:01;;;;;;;8.60;0.80;;;;;;;10.85;100.00;100344.00;6156050;28;20415;-79
2024/04/04 02:22:02;;;;;;;5.30;0.55;;;;;;;10.83;100.00;100348.53;6160755;28;20448;-76
2024/04/04 02:25:05;;;;;;;1.77;0.77;;;;;;;10.79;100.00;100344.38;6171821;28;20049;-77
2024/04/04 02:28:05;;;;;;;4.13;0.88;;;;;;;10.77;100.00;100337.56;6172024;28;20181;-78
2024/04/04 02:31:07;;;;;;;3.78;0.95;;;;;;;10.74;100.00;100333.31;6166799;28;20432;-77
2024/04/04 02:34:07;;;;;;;3.85;0.93;;;;;;;10.79;100.00;100333.88;6166041;28;20054;-81
2024/04/04 02:37:09;;;;;;;5.30;0.73;;;;;;;10.73;100.00;100330.78;6163749;28;20038;-77
2024/04/04 02:40:11;;;;;;;5.30;1.33;;;;;;;10.76;100.00;100335.84;6163788;28;20053;-79
2024/04/04 02:43:12;;;;;;;10.07;1.13;;;;;;;10.73;100.00;100328.16;6179747;28;20057;-78
2024/04/04 02:46:12;;;;;;;0.50;0.45;;;;;;;10.68;100.00;100314.47;6176937;28;20046;-79
2024/04/04 02:49:14;;;;;;;5.13;0.57;;;;;;;10.58;100.00;100320.28;6177190;28;20055;-78
2024/04/04 02:52:14;;;;;;;5.13;0.80;;;;;;;10.55;100.00;100309.94;6170949;28;20039;-79
2024/04/04 02:55:17;;;;;;;5.88;1.65;;;;;;;10.50;100.00;100314.63;6169559;28;20479;-77
2024/04/04 02:58:17;;;;;;;2.13;0.70;;;;;;;10.50;100.00;100316.41;6171359;28;20047;-79
2024/04/04 03:01:18;;;;;;;6.43;0.93;;;;;;;10.53;100.00;100313.56;6174981;28;20101;-78
2024/04/04 03:04:19;;;;;;;5.22;0.75;;;;;;;10.52;100.00;100323.25;6162850;28;20058;-77
2024/04/04 03:07:21;;;;;;;1.58;0.60;;;;;;;10.44;100.00;100316.75;6163144;28;20087;-78
2024/04/04 03:10:22;;;;;;;3.53;0.55;;;;;;;10.39;100.00;100312.63;6170301;28;20075;-77
2024/04/04 03:13:24;;;;;;;1.55;0.73;;;;;;;10.35;100.00;100318.16;6175469;28;20079;-77
2024/04/04 03:16:24;;;;;;;2.88;0.70;;;;;;;10.30;100.00;100317.56;6178330;28;20069;-77
2024/04/04 03:19:26;;;;;;;8.00;1.02;;;;;;;10.24;100.00;100315.28;6163112;28;20055;-78
2024/04/04 03:22:27;;;;;;;1.42;0.57;;;;;;;10.21;100.00;100310.22;6170284;28;20061;-78
2024/04/04 03:25:29;;;;;;;4.15;1.08;;;;;;;10.19;100.00;100314.72;6178471;28;20054;-77
2024/04/04 03:28:30;;;;;;;0.90;0.60;;;;;;;10.11;100.00;100313.38;6159693;28;20439;-77
2024/04/04 03:31:30;;;;;;;2.97;1.13;;;;;;;10.06;100.00;100306.69;6169815;28;20066;-77
2024/04/04 03:34:32;;;;;;;4.78;0.85;;;;;;;10.02;100.00;100310.44;6170165;28;20047;-78
2024/04/04 03:37:32;;;;;;;2.30;1.05;;;;;;;10.10;100.00;100302.97;6163078;28;20066;-79
2024/04/04 03:40:36;;;;;;;3.22;0.88;;;;;;;9.94;100.00;100295.13;6169947;28;20051;-77
2024/04/04 03:43:37;;;;;;;4.10;0.80;;;;;;;9.91;100.00;100301.41;6176850;28;20057;-77
2024/04/04 03:46:39;;;;;;;4.82;1.05;;;;;;;9.85;100.00;100288.63;6171737;28;20050;-79
2024/04/04 03:49:40;;;;;;;3.42;1.13;;;;;;;9.82;100.00;100301.94;6169821;28;20051;-76
2024/04/04 03:52:40;;;;;;;0.50;0.50;;;;;;;9.78;100.00;100289.94;6176323;28;20062;-78
2024/04/04 03:55:43;;;;;;;3.33;0.70;;;;;;;9.79;100.00;100290.78;6171587;28;20051;-77
2024/04/04 03:58:44;;;;;;;2.33;0.85;;;;;;;9.68;100.00;100288.78;6163739;28;20051;-76
2024/04/04 04:01:45;;;;;;;1.27;0.70;;;;;;;9.64;100.00;100285.47;6174430;28;20047;-80
2024/04/04 04:04:45;;;;;;;4.38;0.82;;;;;;;9.67;100.00;100294.94;6173255;28;20329;-77
2024/04/04 04:07:47;;;;;;;3.30;0.65;;;;;;;9.64;100.00;100292.50;6172094;28;20085;-76
2024/04/04 04:10:49;;;;;;;2.38;0.77;;;;;;;9.61;100.00;100292.66;6169452;28;20051;-79
2024/04/04 04:13:50;;;;;;;7.22;0.95;;;;;;;9.53;100.00;100287.84;6174693;28;20364;-77
2024/04/04 04:16:51;;;;;;;6.43;1.08;;;;;;;9.57;100.00;100291.97;6172137;28;20047;-77
2024/04/04 04:19:51;;;;;;;2.45;0.75;;;;;;;9.55;100.00;100298.25;6171970;28;20070;-77
2024/04/04 04:22:53;;;;;;;1.92;0.60;;;;;;;9.52;100.00;100298.44;6169493;28;20051;-78
2024/04/04 04:25:56;;;;;;;5.68;1.38;;;;;;;9.59;100.00;100295.38;6174744;28;20055;-77
2024/04/04 04:28:56;;;;;;;4.22;0.75;;;;;;;9.46;100.00;100297.00;6169245;28;20049;-79
2024/04/04 04:31:57;;;;;;;0.95;0.85;;;;;;;9.43;100.00;100296.31;6175005;28;20054;-77
2024/04/04 04:34:58;;;;;;;3.90;0.80;;;;;;;9.35;100.00;100292.34;6161701;28;20051;-77
2024/04/04 04:37:59;;;;;;;2.92;0.90;;;;;;;9.37;100.00;100293.09;6177213;28;20043;-77
2024/04/04 04:41:04;;;;;;;1.77;0.60;;;;;;;9.34;100.00;100285.41;6177596;28;20066;-77
2024/04/04 04:44:05;;;;;;;8.95;1.10;;;;;;;9.31;100.00;100295.22;6212918;23;20049;-84
2024/04/04 04:47:06;;;;;;;5.75;1.10;;;;;;;9.35;100.00;100296.72;6195065;28;20058;-83
2024/04/04 04:50:07;;;;;;;8.13;0.80;;;;;;;9.31;100.00;100287.34;6202436;28;20046;-84
2024/04/04 04:53:08;;;;;;;2.85;0.90;;;;;;;9.35;100.00;100286.25;6201163;28;20046;-84
2024/04/04 04:56:10;;;;;;;6.40;1.02;;;;;;;9.38;100.00;100283.47;6201245;28;20053;-83
2024/04/04 04:59:11;;;;;;;4.15;1.08;;;;;;;9.36;100.00;100277.47;6201036;28;20129;-83
2024/04/04 05:02:13;;;;;;;3.53;0.82;;;;;;;9.30;100.00;100273.38;6191438;28;20050;-84
2024/04/04 05:05:15;;;;;;;9.48;0.80;;;;;;;9.35;100.00;100273.13;6193969;28;20081;-83
2024/04/04 05:08:16;;;;;;;5.65;0.95;;;;;;;9.36;100.00;100274.84;6201048;28;20093;-83
2024/04/04 05:11:19;;;;;;;2.35;0.70;;;;;;;9.50;100.00;100271.44;6190835;28;20112;-84
2024/04/04 05:14:19;;;;;;;2.42;0.98;;;;;;;9.56;100.00;100271.09;6201070;28;20049;-83
2024/04/04 05:17:21;;;;;;;7.95;0.90;;;;;;;9.61;100.00;100269.88;6200875;28;20047;-83
2024/04/04 05:20:22;;;;;;;7.80;0.90;;;;;;;9.65;100.00;100265.31;6200637;28;20047;-83
2024/04/04 05:23:23;;;;;;;13.35;1.38;;;;;;;9.61;100.00;100267.28;6201042;28;20053;-83
2024/04/04 05:26:25;;;;;;;6.68;1.00;;;;;;;9.62;100.00;100265.50;6199236;28;20086;-83
2024/04/04 05:29:26;;;;;;;2.40;0.70;;;;;;;9.57;100.00;100264.91;6200389;28;20053;-84
2024/04/04 05:32:27;;;;;;;6.22;0.80;;;;;;;9.64;100.00;100259.22;6192406;28;20050;-83
2024/04/04 05:35:27;;;;;;;4.63;0.80;;;;;;;9.66;100.00;100257.34;6200783;28;20039;-84
2024/04/04 05:38:29;;;;;;;3.65;1.25;;;;;;;9.71;100.00;100257.09;6200669;28;20473;-83
2024/04/04 05:41:31;;;;;;;2.88;0.65;;;;;;;9.76;100.00;100262.91;6200517;28;20042;-83
2024/04/04 05:44:32;;;;;;;3.25;0.85;;;;;;;9.79;100.00;100259.28;6186991;28;20408;-83
2024/04/04 05:47:32;;;;;;;7.43;1.35;;;;;;;9.85;100.00;100261.53;6197528;28;20046;-83
2024/04/04 05:50:34;;;;;;;12.20;1.17;;;;;;;9.80;100.00;100268.84;6204280;28;20065;-83
2024/04/04 05:53:35;;;;;;;4.18;0.90;;;;;;;9.83;100.00;100258.16;6204425;28;20209;-84
2024/04/04 05:56:37;;;;;;;1.88;0.70;;;;;;;9.93;100.00;100261.09;6204725;28;20047;-83
2024/04/04 05:59:39;;;;;;;4.28;0.60;;;;;;;9.99;100.00;100250.22;6204552;28;20359;-83
2024/04/04 06:02:39;;;;;;;4.43;0.65;;;;;;;10.02;100.00;100243.03;6204421;28;20061;-83
2024/04/04 06:05:41;;;;;;;1.83;0.70;;;;;;;10.08;100.00;100236.56;6204407;28;20046;-83
2024/04/04 06:08:41;;;;;;;2.78;0.60;;;;;;;10.12;100.00;100228.41;6204576;28;20439;-83
2024/04/04 06:11:44;;;;;;;5.65;0.75;;;;;;;10.05;100.00;100231.50;6204226;28;20058;-84
2024/04/04 06:14:45;;;;;;;3.00;0.90;;;;;;;10.17;100.00;100222.88;6204437;28;20046;-84
2024/04/04 06:17:47;;;;;;;3.35;0.90;;;;;;;10.14;100.00;100213.44;6204110;28;20477;-83
2024/04/04 06:20:47;;;;;;;3.47;0.68;;;;;;;10.07;100.00;100208.63;6203937;28;20054;-84
2024/04/04 06:23:49;;;;;;;3.67;1.00;;;;;;;10.12;100.00;100206.56;6204171;28;20050;-84
2024/04/04 06:26:50;;;;;;;3.92;1.15;;;;;;;10.16;100.00;100201.03;6203629;28;20042;-84
2024/04/04 06:29:52;;;;;;;1.23;0.60;;;;;;;10.14;100.00;100196.84;6195834;28;20051;-84
2024/04/04 06:32:53;;;;;;;2.95;0.80;;;;;;;10.16;100.00;100193.16;6195473;28;20439;-83
2024/04/04 06:35:53;;;;;;;12.10;1.27;;;;;;;10.24;100.00;100178.72;6203945;28;20047;-83
2024/04/04 06:38:56;;;;;;;9.65;1.70;;;;;;;10.33;100.00;100181.66;6203583;28;20081;-84
2024/04/04 06:41:58;;;;;;;3.00;0.90;;;;;;;10.46;100.00;100178.28;6201423;28;20089;-84
2024/04/04 06:44:59;;;;;;;3.83;0.90;;;;;;;10.34;100.00;100170.22;6192340;28;20458;-84
2024/04/04 06:48:00;;;;;;;6.63;0.85;;;;;;;10.47;100.00;100172.94;6203272;28;20057;-83
2024/04/04 06:51:02;;;;;;;4.28;0.73;;;;;;;10.60;100.00;100180.91;6203477;28;20435;-83
2024/04/04 06:54:02;;;;;;;4.18;0.55;;;;;;;10.75;100.00;100177.31;6202847;28;20053;-83
2024/04/04 06:57:05;;;;;;;3.83;0.82;;;;;;;10.77;100.00;100182.47;6203247;28;20042;-83
2024/04/04 07:00:09;;;;;;;5.05;2.13;;;;;;;10.86;100.00;100176.63;6192794;28;20435;-83
2024/04/04 07:03:10;;;;;;;4.72;1.17;;;;;;;10.91;100.00;100170.16;6178138;28;20432;-83
2024/04/04 07:06:11;;;;;;;6.65;0.70;;;;;;;10.97;100.00;100168.06;6178757;28;20039;-83
2024/04/04 07:09:13;;;;;;;2.33;0.88;;;;;;;11.00;100.00;100173.97;6192254;28;20069;-83
2024/04/04 07:12:14;;;;;;;3.40;0.80;;;;;;;11.09;100.00;100165.50;6195899;28;20355;-81
2024/04/04 07:15:16;;;;;;;4.78;0.85;;;;;;;10.99;100.00;100158.28;6174325;28;20053;-82
2024/04/04 07:18:16;;;;;;;14.07;1.45;;;;;;;11.00;100.00;100155.56;6179872;28;20042;-81
2024/04/04 07:21:18;;;;;;;0.68;0.60;;;;;;;11.01;100.00;100148.53;6191186;28;20078;-82
2024/04/04 07:24:18;;;;;;;7.55;1.15;;;;;;;11.06;100.00;100147.28;6179399;28;20448;-81
2024/04/04 07:27:21;;;;;;;3.45;0.82;;;;;;;11.11;100.00;100147.81;6185264;28;20050;-83
2024/04/04 07:30:21;;;;;;;5.40;0.73;;;;;;;11.13;100.00;100147.72;6183372;28;20363;-82
2024/04/04 07:33:23;;;;;;;2.30;0.70;;;;;;;11.11;100.00;100145.19;6184194;28;20057;-82
2024/04/04 07:36:25;;;;;;;1.55;0.88;;;;;;;11.10;100.00;100130.34;6177330;28;20420;-82
2024/04/04 07:39:25;;;;;;;7.78;0.77;;;;;;;11.09;100.00;100133.09;6183185;28;20051;-81
2024/04/04 07:42:28;;;;;;;6.15;0.93;;;;;;;11.05;100.00;100124.56;6185239;28;20046;-81
2024/04/04 07:45:30;;;;;;;1.48;0.70;;;;;;;10.98;100.00;100120.63;6193011;28;20435;-79
2024/04/04 07:48:30;;;;;;;4.25;0.90;;;;;;;10.88;100.00;100120.38;6190907;28;20046;-79
2024/04/04 07:51:31;;;;;;;3.20;0.90;;;;;;;10.81;100.00;100121.75;6202299;28;20367;-79
2024/04/04 07:54:32;;;;;;;6.00;0.85;;;;;;;10.74;100.00;100122.22;6176629;28;20481;-78
2024/04/04 07:57:35;;;;;;;2.17;0.90;;;;;;;10.65;100.00;100121.84;6177624;28;20043;-82
2024/04/04 08:00:37;;;;;;;0.98;0.57;;;;;;;10.59;100.00;100114.38;6193521;28;20346;-79
2024/04/04 08:03:38;;;;;;;4.15;1.10;;;;;;;10.58;100.00;100107.44;6190934;28;20129;-78
2024/04/04 08:06:39;;;;;;;5.20;0.88;;;;;;;10.54;100.00;100105.09;6185572;28;20043;-81
2024/04/04 08:09:40;;;;;;;7.50;1.98;;;;;;;10.54;100.00;100105.09;6201821;28;20050;-80
2024/04/04 08:12:43;;;;;;;2.05;0.77;;;;;;;10.58;100.00;100101.31;6201339;28;20046;-79
2024/04/04 08:15:49;;;;;;;1.27;0.75;;;;;;;10.53;100.00;100096.34;6201609;28;20741;-80
2024/04/04 08:18:50;;;;;;;2.45;1.90;;;;;;;10.54;100.00;100100.69;6201835;28;20380;-81
2024/04/04 08:21:51;;;;;;;1.00;0.75;;;;;;;10.61;100.00;100095.88;6199739;28;20066;-79
2024/04/04 08:24:52;;;;;;;1.02;0.77;;;;;;;10.54;100.00;100089.34;6201327;28;20058;-80
2024/04/04 08:27:54;;;;;;;1.73;0.77;;;;;;;10.51;100.00;100085.13;6201125;28;20050;-80
2024/04/04 08:30:59;;;;;;;2.20;1.00;;;;;;;10.61;100.00;100088.84;6201388;28;20447;-81
2024/04/04 08:34:00;;;;;;;2.40;0.90;;;;;;;10.62;100.00;100080.00;6196713;28;20089;-81
2024/04/04 08:37:00;;;;;;;3.05;1.75;;;;;;;10.75;100.00;100082.69;6197347;28;20343;-79
2024/04/04 08:40:03;;;;;;;5.35;1.42;;;;;;;10.68;100.00;100085.84;6201111;28;20042;-80
2024/04/04 08:43:06;;;;;;;1.48;0.70;;;;;;;10.73;100.00;100089.84;6201062;28;20443;-80
2024/04/04 08:46:07;;;;;;;3.65;0.90;;;;;;;10.76;100.00;100078.28;6200999;28;20046;-80
2024/04/04 08:49:08;;;;;;;3.03;1.10;;;;;;;10.82;100.00;100073.47;6201213;28;20047;-82
2024/04/04 08:52:10;;;;;;;2.90;1.17;;;;;;;10.85;100.00;100073.25;6200835;28;20080;-80
2024/04/04 08:55:10;;;;;;;1.75;0.85;;;;;;;10.85;100.00;100060.13;6184406;28;20042;-82
2024/04/04 08:58:14;;;;;;;3.60;1.20;;;;;;;10.86;100.00;100063.63;6200718;28;20047;-81
2024/04/04 09:01:14;;;;;;;3.53;0.70;;;;;;;10.82;100.00;100060.34;6200857;28;20046;-81
2024/04/04 09:04:23;;;;;;;4.00;0.90;;;;;;;10.91;100.00;100062.34;6201024;28;20053;-81
2024/04/04 09:07:25;;;;;;;0.80;0.80;;;;;;;10.84;100.00;100068.94;6200842;28;20050;-80
2024/04/04 09:10:25;;;;;;;1.17;0.90;;;;;;;10.89;100.00;100047.63;6180499;28;20359;-80
2024/04/04 09:13:29;;;;;;;1.02;0.80;;;;;;;11.00;100.00;100050.41;6176393;28;20049;-81
2024/04/04 09:16:30;;;;;;;2.03;1.10;;;;;;;11.12;100.00;100043.47;6176493;28;20050;-82
2024/04/04 09:19:31;;;;;;;2.08;1.00;;;;;;;11.28;100.00;100046.75;6180949;28;20085;-82
2024/04/04 09:22:34;;;;;;;3.25;1.40;;;;;;;11.30;100.00;100036.97;6188703;28;20053;-82
2024/04/04 09:25:38;;;;;;;3.17;1.35;;;;;;;11.37;100.00;100032.16;6184796;28;20046;-83
2024/04/04 09:28:41;;;;;;;3.78;0.80;;;;;;;11.49;100.00;100033.06;6197701;28;20078;-82
2024/04/04 09:31:43;;;;;;;1.52;0.90;;;;;;;11.62;100.00;100034.75;6205018;28;20054;-80
2024/04/04 09:34:45;;;;;;;1.33;0.98;;;;;;;11.76;100.00;100028.53;6200219;28;20129;-81
2024/04/04 09:37:47;;;;;;;1.40;1.05;;;;;;;11.89;100.00;100025.94;6180601;28;20518;-80
2024/04/04 09:40:50;;;;;;;1.23;0.82;;;;;;;11.97;100.00;100035.94;6198337;28;20050;-80
2024/04/04 09:43:56;;;;;;;1.70;1.00;;;;;;;12.01;100.00;100021.59;6204730;28;20111;-81
2024/04/04 09:46:59;;;;;;;4.85;2.38;;;;;;;12.08;100.00;100023.69;6204818;28;20366;-80
2024/04/04 09:50:03;;;;;;;1.30;1.05;;;;;;;12.12;100.00;100019.88;6204756;28;20057;-81
2024/04/04 09:53:04;;;;;;;2.53;0.98;;;;;;;12.16;100.00;100017.84;6204368;28;20050;-80
2024/04/04 09:56:07;;;;;;;3.80;1.05;;;;;;;12.12;100.00;100014.59;6204771;28;20038;-81
2024/04/04 09:59:09;;;;;;;1.92;1.38;;;;;;;12.11;100.00;100012.09;6194408;28;20053;-82
2024/04/04 10:02:10;;;;;;;4.82;1.10;;;;;;;12.05;100.00;100012.53;6190221;28;20117;-81
2024/04/04 10:05:19;;;;;;;1.23;0.90;;;;;;;12.00;100.00;100007.59;6191248;28;20351;-82
2024/04/04 10:08:20;;;;;;;1.63;1.00;;;;;;;12.00;100.00;100007.59;6204603;28;20077;-83
2024/04/04 10:11:30;;;;;;;1.77;0.90;;;;;;;12.03;100.00;100003.88;6204076;28;20740;-81
2024/04/04 10:14:33;;;;;;;2.50;1.35;;;;;;;11.96;100.00;100002.66;6204306;28;20046;-80
2024/04/04 10:17:41;;;;;;;1.98;1.08;;;;;;;11.93;100.00;99999.28;6204090;28;20054;-80
2024/04/04 10:20:51;;;;;;;1.80;0.90;;;;;;;12.05;100.00;100005.47;6200833;28;20062;-81
2024/04/04 10:23:53;;;;;;;0.93;0.82;;;;;;;12.08;100.00;100002.63;6187823;28;20053;-81
2024/04/04 10:26:57;;;;;;;3.63;0.90;;;;;;;12.14;100.00;100001.34;6198088;28;20359;-80
2024/04/04 10:29:59;;;;;;;2.45;1.13;;;;;;;12.17;100.00;99990.56;6203237;28;20042;-79
2024/04/04 10:33:05;;;;;;;0.70;0.70;;;;;;;12.17;100.00;100003.72;6198871;28;20046;-78
2024/04/04 10:36:07;;;;;;;0.70;0.70;;;;;;;12.18;100.00;100002.81;6203381;28;20042;-78
2024/04/04 10:39:12;;;;;;;3.65;0.85;;;;;;;12.23;100.00;99999.84;6203566;28;20042;-79
2024/04/04 10:42:13;;;;;;;1.35;0.98;;;;;;;12.25;100.00;99990.00;6203405;28;20050;-78
2024/04/04 10:45:23;;;;;;;1.17;0.95;;;;;;;12.21;100.00;99994.66;6238032;23;20088;-78
2024/04/04 10:48:24;;;;;;;3.17;1.00;;;;;;;12.34;100.00;99994.63;6227640;28;20073;-77
2024/04/04 10:51:25;;;;;;;0.63;0.63;;;;;;;12.45;100.00;99989.44;6221325;28;20062;-79
2024/04/04 10:54:28;;;;;;;6.43;0.90;;;;;;;12.57;100.00;99987.66;6203518;28;20050;-77
2024/04/04 10:57:30;;;;;;;4.15;1.00;;;;;;;12.65;100.00;99994.06;6204001;28;20431;-79
2024/04/04 11:00:35;;;;;;;1.73;0.93;;;;;;;12.62;100.00;99999.53;6227593;28;20053;-79
2024/04/04 11:03:38;;;;;;;2.88;1.08;;;;;;;12.58;100.00;99998.13;6227344;28;20046;-80
2024/04/04 11:06:39;;;;;;;3.25;1.30;;;;;;;12.62;100.00;100001.34;6227152;28;20354;-79
2024/04/04 11:09:41;;;;;;;4.10;1.80;;;;;;;12.61;100.00;100004.94;6227288;28;20065;-78
2024/04/04 11:12:45;;;;;;;4.70;1.00;;;;;;;12.72;100.00;99996.22;6227133;28;20049;-75
2024/04/04 11:15:47;;;;;;;1.58;0.93;;;;;;;12.88;100.00;99988.88;6226996;28;20129;-78
2024/04/04 11:18:49;;;;;;;1.13;0.88;;;;;;;13.00;100.00;99989.75;6226945;28;20087;-78
2024/04/04 11:21:50;;;;;;;0.80;0.80;;;;;;;13.01;100.00;99994.06;6213976;28;20046;-79
2024/04/04 11:24:51;;;;;;;2.58;1.10;;;;;;;13.00;100.00;99998.50;6226769;28;20052;-77
2024/04/04 11:27:52;;;;;;;1.20;0.73;;;;;;;12.98;100.00;99994.28;6226860;28;20049;-78
2024/04/04 11:30:55;;;;;;;0.60;0.60;;;;;;;12.97;100.00;99995.25;6226555;28;20050;-77
2024/04/04 11:33:55;;;;;;;4.57;0.85;;;;;;;12.98;100.00;99987.22;6211289;28;20046;-77
2024/04/04 11:36:57;;;;;;;1.20;1.10;;;;;;;12.87;100.00;99984.56;6202061;28;20053;-78
2024/04/04 11:39:57;;;;;;;3.03;1.77;;;;;;;12.97;100.00;99990.81;6220812;28;20054;-76
2024/04/04 11:42:59;;;;;;;1.63;0.80;;;;;;;12.93;100.00;99984.09;6225884;28;20477;-76
2024/04/04 11:46:01;;;;;;;1.20;0.80;;;;;;;12.78;100.00;99996.63;6226630;28;20038;-76
2024/04/04 11:49:02;;;;;;;2.00;0.90;;;;;;;12.77;100.00;99992.31;6226346;28;20096;-76
2024/04/04 11:52:03;;;;;;;0.90;0.80;;;;;;;12.79;100.00;100000.09;6226182;28;20046;-78
2024/04/04 11:55:05;;;;;;;3.55;1.33;;;;;;;12.82;100.00;99995.44;6226464;28;20048;-81
2024/04/04 11:58:06;;;;;;;1.38;0.98;;;;;;;12.81;100.00;99991.13;6214328;28;20049;-80
2024/04/04 12:01:10;;;;;;;0.80;0.80;;;;;;;12.80;100.00;100005.25;6201820;28;20157;-78
2024/04/04 12:04:12;;;;;;;4.10;1.00;;;;;;;12.90;100.00;100013.34;6205650;28;20041;-77
2024/04/04 12:07:13;;;;;;;2.08;1.30;;;;;;;13.02;100.00;100016.84;6205302;28;20065;-76
2024/04/04 12:10:14;;;;;;;0.80;0.80;;;;;;;13.16;100.00;100022.75;6201502;28;20050;-77
2024/04/04 12:13:16;;;;;;;2.15;0.90;;;;;;;13.28;100.00;100007.00;6201483;28;20116;-77
2024/04/04 12:16:19;;;;;;;4.28;1.42;;;;;;;13.28;100.00;100018.38;6201518;28;20049;-79
2024/04/04 12:19:27;;;;;;;1.90;1.05;;;;;;;13.54;100.00;100020.84;6201485;28;20049;-76
2024/04/04 12:22:28;;;;;;;1.75;1.15;;;;;;;13.74;100.00;100024.56;6201874;28;20050;-77
2024/04/04 12:25:30;;;;;;;2.90;1.42;;;;;;;13.86;100.00;100016.50;6224395;28;20046;-76
2024/04/04 12:28:30;;;;;;;1.23;0.98;;;;;;;13.82;100.00;100011.59;6225921;28;20049;-77
2024/04/04 12:31:33;;;;;;;2.42;1.10;;;;;;;13.74;100.00;100024.56;6225477;28;20052;-79
2024/04/04 12:34:34;;;;;;;1.75;0.82;;;;;;;13.73;100.00;100029.00;6206749;28;20554;-83
2024/04/04 12:37:35;;;;;;;1.45;0.95;;;;;;;13.86;100.00;100029.72;6209815;28;20054;-78
2024/04/04 12:40:37;;;;;;;1.75;1.05;;;;;;;13.97;100.00;100015.66;6220411;28;20133;-78
2024/04/04 12:43:38;;;;;;;1.10;0.90;;;;;;;14.27;100.00;100022.13;6224121;28;20058;-81
2024/04/04 12:46:40;;;;;;;4.13;1.23;;;;;;;14.24;100.00;100014.44;6225533;28;20057;-78
2024/04/04 12:49:41;;;;;;;2.22;0.90;;;;;;;14.24;100.00;100014.44;6225459;28;20081;-77
2024/04/04 12:52:43;;;;;;;3.28;1.00;;;;;;;14.25;100.00;100022.22;6227978;28;20054;-80
2024/04/04 12:55:43;;;;;;;4.65;1.15;;;;;;;14.37;100.00;100015.94;6213911;28;20046;-77
2024/04/04 12:58:45;;;;;;;5.75;1.23;;;;;;;14.48;100.00;100012.47;6214687;28;20091;-79
2024/04/04 13:01:47;;;;;;;3.83;1.00;;;;;;;14.86;100.00;99993.47;6223229;28;20050;-81
2024/04/04 13:04:48;;;;;;;4.80;1.00;;;;;;;15.13;100.00;99995.59;6230122;28;20046;-77
2024/04/04 13:07:48;;;;;;;5.25;0.93;;;;;;;15.03;100.00;100007.06;6230016;28;20049;-77
2024/04/04 13:10:50;;;;;;;4.75;1.10;;;;;;;14.72;100.00;100009.63;6228698;28;20521;-81
2024/04/04 13:13:51;;;;;;;1.10;0.90;;;;;;;14.64;100.00;100020.00;6204659;28;20443;-77
2024/04/04 13:16:55;;;;;;;1.85;0.90;;;;;;;14.45;100.00;100036.50;6208208;28;20134;-81
2024/04/04 13:19:55;;;;;;;4.93;1.08;;;;;;;14.06;100.00;100085.44;6218909;28;20052;-84
2024/04/04 13:22:57;;;;;;;2.03;0.75;;;;;;;13.14;100.00;100146.03;6210408;28;20050;-79
2024/04/04 13:25:58;;;;;;;0.75;0.50;;;;;;;11.99;100.00;100118.28;6228448;28;20056;-79
2024/04/04 13:29:00;;;;;;;0.90;0.30;;;;;;;11.26;100.00;100116.19;6229871;28;20046;-77
2024/04/04 13:32:02;;;;;;;5.00;0.40;;;;;;;10.96;100.00;100100.66;6229461;28;20057;-77
2024/04/04 13:35:05;;;;;;;0.40;0.40;;;;;;;10.97;100.00;100105.81;6216337;28;20459;-78
2024/04/04 13:38:06;;;;;;;0.73;0.40;;;;;;;11.31;100.00;100103.56;6229468;28;20038;-75
2024/04/04 13:41:07;;;;;;;3.13;0.30;;;;;;;11.28;100.00;100093.28;6217693;28;20053;-74
2024/04/04 13:44:08;;;;;;;0.40;0.32;;;;;;;11.68;100.00;100089.63;6196829;28;20038;-77
2024/04/04 13:47:11;;;;;;;3.00;0.63;;;;;;;12.05;100.00;100094.16;6199674;28;20046;-79
2024/04/04 13:50:12;;;;;;;4.18;0.63;;;;;;;12.57;100.00;100096.56;6209597;28;20038;-78
2024/04/04 13:53:12;;;;;;;2.00;0.70;;;;;;;13.06;100.00;100086.88;6179713;28;20364;-78
2024/04/04 13:56:14;;;;;;;1.75;0.52;;;;;;;13.26;100.00;100094.16;6169644;28;20085;-79
2024/04/04 13:59:15;;;;;;;4.25;0.70;;;;;;;13.25;100.00;100089.84;6167233;28;20073;-83